Red Bluff, CA

3:57 AM PDT on August 28, 2014 (GMT -0700)
Red Bluff Municipal | Change Station
CLOSE
Current Station
Airport
Location: Red Bluff,
Elevation: 351 ft
Nearby Weather Stations

Elev 351 ft 40.15 °N, 122.25 °W | Updated 1 hour ago

Clear
Clear
72 °F
Feels Like 72 °F
N
4
Wind Variable Wind from NNW

Today
High -- | Low -- °F
--% Chance of Precip.
Yesterday
High -- | Low -- °F
Precip. -- in
6:32 AM 7:46 PM
Waxing Crescent, 7% visible
Pressure 29.99 in
Visibility 10.0 miles
Clouds Clear
Dew Point 55 °F
Humidity 55%
Rainfall 0.00 in
Snow Depth Not available.
UV 0 out of 12
Pollen 8.50 out of 12
Air Quality Not available.
Flu Activity Not available.
METAR KRBL 280954Z AUTO 33003KT 10SM CLR 22/13 A3000 RMK AO2 SLP155 T02220128

More Conditions Fewer Conditions

Pressure 29.99 in
Visibility 10.0 miles
Clouds Clear
Dew Point 55 °F
Humidity 55%
Rainfall 0.00 in
Snow Depth Not available.
UV 0 out of 12
Pollen 8.50 out of 12
Air Quality Not available.
Flu Activity Not available.
METAR KRBL 280954Z AUTO 33003KT 10SM CLR 22/13 A3000 RMK AO2 SLP155 T02220128

More Conditions Fewer Conditions

10-Day Weather Forecast

Almanac

Astronomy

Aug. 28, 2014 Rise Set
Actual Time 6:32 AM PDT 7:46 PM PDT
Civil Twilight 6:04 AM PDT 8:14 PM PDT
Nautical Twilight 5:31 AM PDT 8:48 PM PDT
Astronomical Twilight 4:55 AM PDT 9:23 PM PDT
Moon 9:30 AM PDT 9:13 PM PDT
Length of Visible Light 14h 10m
Length of Day
13h 13m
Tomorrow will be 2m 32s shorter.
Waxing Crescent, 7% of the Moon is Illuminated
Today
Waxing Crescent
Sep 2
First Quarter
Sep 8
Full
Sep 15
Last Quarter
Sep 24
New

Today's Extremes

State Highs State Lows

Community

WunderPhotos

Upload Photos

1,747,920 photos uploaded!

Nearby

Snow Depth

Station Depth Elevation
Adin Mountain 0 in 6200 ft
Independence Creek 0 in 6500 ft
CSS Lab 0 in 6900 ft
Tahoe City Cross 0 in 6750 ft
Rubicon #2 0 in 7500 ft

Earthquake Activity

City Distance Mag. Time & Date
Napa, California 133 miles 2.6 11:57 AM PDT
2014-08-27
The Geysers, California 99 miles 2.6 7:42 AM PDT
2014-08-27
Napa, California 134 miles 2.5 10:56 AM PDT
2014-08-26
Napa, California 133 miles 3.0 6:45 AM PDT
2014-08-26
Minimum magnitude displayed is 2.5.

Coastal Water Temperatures

Place Temperature
No Stations Reporting

Nearby Weather Stations